Time;durP1;ratioP1;P1;durP2;ratioP2;P2;SDS_P1;SDS_P2;PMS_P1;PMS_P2;Temp;Humidity;BMP_temperature;BMP_pressure;BME280_temperature;BME280_humidity;BME280_pressure;Samples;Min_cycle;Max_cycle;Signal;HPM_P1;HPM_P2
2021/05/24 00:00:45;;;;;;;4.93;3.77;;;;;;;18.64;57.36;99732.06;2071971;28;20589;-62
2021/05/24 00:01:46;;;;;;;6.00;3.92;;;;;;;18.64;57.21;99728.47;2078816;28;20029;-62
2021/05/24 00:02:48;;;;;;;4.80;3.67;;;;;;;18.66;57.29;99722.84;2077956;28;20064;-62
2021/05/24 00:03:48;;;;;;;7.20;3.85;;;;;;;18.65;57.21;99722.00;2077832;28;20120;-62
2021/05/24 00:04:49;;;;;;;5.23;4.30;;;;;;;18.66;57.17;99731.06;2076401;28;20033;-62
2021/05/24 00:05:49;;;;;;;4.83;4.10;;;;;;;18.65;57.22;99727.47;2071671;28;20041;-62
2021/05/24 00:06:50;;;;;;;5.63;4.20;;;;;;;18.65;57.05;99722.00;2072185;28;20021;-62
2021/05/24 00:07:51;;;;;;;5.23;4.00;;;;;;;18.65;57.17;99716.53;2074444;28;20017;-62
2021/05/24 00:08:51;;;;;;;5.45;4.32;;;;;;;18.65;57.38;99711.09;2069690;28;20084;-62
2021/05/24 00:09:52;;;;;;;6.27;4.00;;;;;;;18.66;57.31;99706.47;2069668;28;20038;-62
2021/05/24 00:10:52;;;;;;;7.90;3.83;;;;;;;18.65;57.35;99713.81;2070204;28;20112;-62
2021/05/24 00:11:54;;;;;;;4.43;3.80;;;;;;;18.65;57.17;99708.34;2078764;28;20029;-62
2021/05/24 00:12:57;;;;;;;7.10;4.03;;;;;;;18.64;57.36;99712.97;2078924;28;20079;-62
2021/05/24 00:13:58;;;;;;;5.25;3.97;;;;;;;18.64;57.26;99714.81;2069386;28;20042;-62
2021/05/24 00:14:59;;;;;;;4.40;3.63;;;;;;;18.64;57.23;99712.09;2069282;28;20036;-62
2021/05/24 00:16:00;;;;;;;;;;;;;;;18.60;57.33;99713.44;2079352;28;20040;-62
2021/05/24 00:17:00;;;;;;;6.00;4.45;;;;;;;18.61;57.47;99704.22;2078276;28;20003;-62
2021/05/24 00:18:01;;;;;;;6.87;4.23;;;;;;;18.61;57.48;99699.59;2078658;28;20475;-62
2021/05/24 00:19:02;;;;;;;9.03;5.30;;;;;;;18.61;57.27;99710.53;2078447;28;20029;-62
2021/05/24 00:20:03;;;;;;;6.17;4.03;;;;;;;18.61;57.28;99715.13;2078938;28;20026;-62
2021/05/24 00:21:04;;;;;;;4.13;3.28;;;;;;;18.62;57.26;99711.41;2077952;28;20029;-62
2021/05/24 00:22:05;;;;;;;5.28;3.70;;;;;;;18.62;57.39;99705.94;2078081;28;20997;-61
2021/05/24 00:23:06;;;;;;;5.07;3.63;;;;;;;18.62;57.25;99700.50;2078524;28;20561;-62
2021/05/24 00:24:07;;;;;;;5.17;3.53;;;;;;;18.62;57.39;99697.75;2078505;28;20109;-62
2021/05/24 00:25:08;;;;;;;4.83;4.00;;;;;;;18.63;57.33;99699.47;2081426;28;20045;-62
2021/05/24 00:26:09;;;;;;;4.78;3.70;;;;;;;18.62;57.43;99695.03;2077041;28;20837;-61
2021/05/24 00:27:09;;;;;;;6.00;3.60;;;;;;;18.62;57.34;99692.31;2078608;28;20473;-62
2021/05/24 00:28:14;;;;;;;6.40;3.43;;;;;;;18.63;57.34;99694.00;2077666;28;20053;-62
2021/05/24 00:29:18;;;;;;;5.25;3.97;;;;;;;18.62;57.12;99692.31;2078613;28;20116;-61
2021/05/24 00:30:19;;;;;;;4.15;3.20;;;;;;;18.63;57.17;99691.28;2078796;28;20439;-62
2021/05/24 00:31:20;;;;;;;5.37;3.83;;;;;;;18.63;57.28;99691.28;2078264;28;20017;-62
2021/05/24 00:32:20;;;;;;;5.50;3.63;;;;;;;18.63;57.34;99685.81;2076200;28;20117;-61
2021/05/24 00:33:21;;;;;;;4.30;3.37;;;;;;;18.62;57.37;99682.22;2072274;28;20049;-62
2021/05/24 00:34:21;;;;;;;4.97;3.53;;;;;;;18.62;57.24;99689.56;2072492;28;20029;-61
2021/05/24 00:35:22;;;;;;;5.20;3.53;;;;;;;18.62;57.42;99684.09;2080939;28;20025;-62
2021/05/24 00:36:23;;;;;;;5.10;3.33;;;;;;;18.62;57.36;99684.09;2070076;28;20025;-62
2021/05/24 00:37:23;;;;;;;4.40;3.57;;;;;;;18.63;57.25;99683.09;2061983;28;20297;-61
2021/05/24 00:38:24;;;;;;;4.63;3.33;;;;;;;18.63;57.30;99680.34;2066917;28;20027;-62
2021/05/24 00:39:24;;;;;;;5.13;3.80;;;;;;;18.61;57.33;99675.03;2077606;28;20091;-62
2021/05/24 00:40:25;;;;;;;4.60;3.27;;;;;;;18.62;57.35;99667.72;2079723;28;20461;-62
2021/05/24 00:41:26;;;;;;;4.65;3.30;;;;;;;18.61;57.22;99671.47;2086481;28;20033;-61
2021/05/24 00:42:27;;;;;;;4.10;3.67;;;;;;;18.61;57.24;99674.19;2076924;28;20540;-62
2021/05/24 00:43:27;;;;;;;5.00;3.40;;;;;;;18.61;57.24;99674.19;2077930;28;20033;-61
2021/05/24 00:44:29;;;;;;;6.07;3.07;;;;;;;18.60;57.42;99676.06;2081718;28;20055;-62
2021/05/24 00:45:30;;;;;;;4.45;3.22;;;;;;;18.62;57.39;99675.91;2070556;28;20483;-61
2021/05/24 00:46:31;;;;;;;5.50;4.00;;;;;;;18.61;57.40;99676.91;2068401;28;20397;-61
2021/05/24 00:47:32;;;;;;;12.00;3.65;;;;;;;18.61;57.49;99676.91;2077950;28;20120;-62
2021/05/24 00:48:32;;;;;;;5.80;2.93;;;;;;;18.61;57.24;99674.19;2078656;28;20033;-62
2021/05/24 00:49:33;;;;;;;4.70;3.67;;;;;;;18.60;57.25;99677.94;2080113;28;20029;-62
2021/05/24 00:50:34;;;;;;;4.57;3.10;;;;;;;18.61;57.33;99679.66;2078503;28;20029;-61
2021/05/24 00:51:34;;;;;;;4.53;2.90;;;;;;;18.60;57.41;99672.47;2078376;28;20534;-61
2021/05/24 00:52:35;;;;;;;4.83;3.50;;;;;;;18.61;57.41;99682.38;2077808;28;20025;-62
2021/05/24 00:53:36;;;;;;;5.37;3.30;;;;;;;18.61;57.33;99682.38;2078723;28;20087;-61
2021/05/24 00:54:36;;;;;;;4.20;3.20;;;;;;;18.60;57.21;99675.22;2077705;28;20100;-61
2021/05/24 00:55:37;;;;;;;4.67;3.40;;;;;;;18.61;57.47;99676.91;2075945;28;20802;-62
2021/05/24 00:56:37;;;;;;;4.83;3.30;;;;;;;18.62;57.30;99689.56;2068973;28;20536;-61
2021/05/24 00:57:39;;;;;;;4.47;3.63;;;;;;;18.61;57.25;99687.84;2069300;28;20234;-62
2021/05/24 00:58:40;;;;;;;5.93;3.55;;;;;;;18.60;57.34;99686.97;2078129;28;20100;-62
2021/05/24 00:59:40;;;;;;;3.80;3.07;;;;;;;18.60;57.35;99669.75;2078286;28;20040;-62
2021/05/24 01:00:46;;;;;;;5.13;3.27;;;;;;;18.60;57.23;99669.75;2074001;28;20029;-61
2021/05/24 01:01:47;;;;;;;4.53;3.50;;;;;;;18.60;57.32;99675.22;2074103;28;20029;-61
2021/05/24 01:02:48;;;;;;;3.33;2.73;;;;;;;18.60;57.34;99669.75;2079597;28;20060;-61
2021/05/24 01:03:49;;;;;;;4.90;3.57;;;;;;;18.61;57.40;99671.47;2081539;28;20060;-61
2021/05/24 01:04:50;;;;;;;7.00;3.10;;;;;;;18.60;57.14;99656.09;2079664;28;20363;-61
2021/05/24 01:05:50;;;;;;;6.57;3.73;;;;;;;18.60;57.28;99670.59;2081275;28;20117;-61
2021/05/24 01:06:55;;;;;;;4.70;3.57;;;;;;;18.60;57.43;99658.84;2082937;28;20441;-61
2021/05/24 01:07:55;;;;;;;5.47;3.30;;;;;;;18.60;57.38;99650.66;2078427;28;20524;-61
2021/05/24 01:08:56;;;;;;;5.83;3.23;;;;;;;18.59;57.26;99649.78;2078720;28;20560;-61
2021/05/24 01:09:57;;;;;;;4.47;3.17;;;;;;;18.59;57.31;99657.97;2074476;28;20018;-61
2021/05/24 01:10:58;;;;;;;6.60;3.63;;;;;;;18.59;57.37;99662.56;2071330;28;20113;-61
2021/05/24 01:11:58;;;;;;;4.27;3.20;;;;;;;18.58;57.37;99650.78;2072640;28;20018;-61
2021/05/24 01:13:00;;;;;;;5.33;3.40;;;;;;;18.59;57.41;99648.91;2073604;28;20022;-61
2021/05/24 01:14:01;;;;;;;5.28;2.95;;;;;;;18.60;57.56;99647.91;2078679;28;20512;-61
2021/05/24 01:15:03;;;;;;;4.88;3.30;;;;;;;18.60;57.26;99642.47;2078258;28;20097;-61
2021/05/24 01:16:04;;;;;;;4.35;2.88;;;;;;;18.59;57.16;99641.59;2085478;28;20112;-61
2021/05/24 01:17:04;;;;;;;4.13;3.17;;;;;;;18.59;57.20;99647.06;2077285;28;20026;-61
2021/05/24 01:18:06;;;;;;;6.00;3.20;;;;;;;18.60;57.45;99643.31;2078890;28;20031;-61
2021/05/24 01:19:06;;;;;;;4.78;2.75;;;;;;;18.59;57.16;99649.78;2078858;28;20061;-62
2021/05/24 01:20:07;;;;;;;5.90;3.17;;;;;;;18.60;57.32;99650.66;2078643;28;20033;-60
2021/05/24 01:21:10;;;;;;;5.10;3.03;;;;;;;18.59;57.32;99646.19;2079230;28;20113;-61
2021/05/24 01:22:16;;;;;;;4.93;2.70;;;;;;;18.60;57.21;99647.91;2075787;28;20450;-61
2021/05/24 01:23:18;;;;;;;4.30;2.83;;;;;;;18.59;57.41;99640.72;2075717;28;20025;-61
2021/05/24 01:24:20;;;;;;;5.20;3.13;;;;;;;18.59;57.37;99635.25;2078476;28;20040;-61
2021/05/24 01:25:20;;;;;;;;;;;;;;;18.54;57.34;99629.41;2078997;28;20096;-61
2021/05/24 01:26:21;;;;;;;4.30;3.05;;;;;;;18.55;57.49;99636.63;2076935;28;19917;-61
2021/05/24 01:27:22;;;;;;;5.07;3.33;;;;;;;18.55;57.52;99634.72;2078144;28;20033;-61
2021/05/24 01:28:22;;;;;;;3.97;3.13;;;;;;;18.56;57.35;99636.44;2079138;28;20184;-61
2021/05/24 01:29:23;;;;;;;4.70;3.17;;;;;;;18.56;57.41;99635.59;2078730;28;20045;-61
2021/05/24 01:30:23;;;;;;;6.33;3.00;;;;;;;18.57;57.40;99634.56;2078713;28;20106;-61
2021/05/24 01:31:24;;;;;;;4.13;2.80;;;;;;;18.56;57.41;99627.41;2079294;28;20107;-61
2021/05/24 01:32:25;;;;;;;3.80;2.57;;;;;;;18.57;57.47;99623.63;2075749;28;20034;-61
2021/05/24 01:33:25;;;;;;;4.47;3.30;;;;;;;18.57;57.38;99626.38;2073122;28;20377;-61
2021/05/24 01:34:26;;;;;;;4.33;3.03;;;;;;;18.57;57.45;99620.91;2067784;28;20061;-61
2021/05/24 01:35:27;;;;;;;7.47;3.47;;;;;;;18.57;57.39;99615.44;2069698;28;20689;-61
2021/05/24 01:36:28;;;;;;;5.00;2.90;;;;;;;18.56;57.44;99619.22;2079072;28;20060;-61
2021/05/24 01:37:28;;;;;;;3.95;2.78;;;;;;;18.57;57.46;99607.25;2075764;28;20271;-61
2021/05/24 01:38:30;;;;;;;4.17;2.80;;;;;;;18.56;57.39;99608.28;2078239;28;20116;-61
2021/05/24 01:39:31;;;;;;;4.32;3.03;;;;;;;18.57;57.39;99607.25;2076583;28;20033;-61
2021/05/24 01:40:32;;;;;;;4.80;3.30;;;;;;;18.57;57.33;99610.00;2077532;28;20033;-61
2021/05/24 01:41:33;;;;;;;3.97;2.80;;;;;;;18.57;57.37;99610.00;2079161;28;20076;-62
2021/05/24 01:42:34;;;;;;;4.40;3.08;;;;;;;18.57;57.51;99610.00;2079037;28;20061;-61
2021/05/24 01:43:35;;;;;;;4.97;3.10;;;;;;;18.56;57.29;99611.03;2078969;28;20033;-61
2021/05/24 01:44:40;;;;;;;4.70;3.10;;;;;;;18.57;57.39;99615.44;2080593;28;20069;-61
2021/05/24 01:45:42;;;;;;;5.43;3.08;;;;;;;18.58;57.34;99611.72;2078410;28;20116;-61
2021/05/24 01:46:42;;;;;;;3.80;2.80;;;;;;;18.57;57.35;99607.25;2069565;28;20120;-61
2021/05/24 01:47:44;;;;;;;5.67;2.90;;;;;;;18.56;57.36;99605.56;2069044;28;20030;-61
2021/05/24 01:48:44;;;;;;;3.30;2.47;;;;;;;18.57;57.36;99607.25;2078507;28;20029;-61
2021/05/24 01:49:47;;;;;;;7.27;3.20;;;;;;;18.57;57.35;99615.44;2078636;28;20034;-62
2021/05/24 01:50:48;;;;;;;3.40;2.60;;;;;;;18.57;57.42;99610.00;2079774;28;20025;-61
2021/05/24 01:51:49;;;;;;;4.43;2.60;;;;;;;18.57;57.43;99604.53;2087984;28;20035;-61
2021/05/24 01:52:50;;;;;;;4.80;3.33;;;;;;;18.56;57.40;99605.56;2079984;28;20258;-61
2021/05/24 01:53:51;;;;;;;3.80;2.55;;;;;;;18.56;57.43;99609.13;2080576;28;20033;-62
2021/05/24 01:54:51;;;;;;;3.87;2.90;;;;;;;18.56;57.46;99600.09;2085153;28;20017;-61
2021/05/24 01:55:52;;;;;;;4.10;2.90;;;;;;;18.56;57.42;99602.84;2079955;28;20041;-61
2021/05/24 01:56:53;;;;;;;5.23;3.23;;;;;;;18.56;57.42;99594.63;2078207;28;20029;-61
2021/05/24 01:57:54;;;;;;;5.97;3.20;;;;;;;18.55;57.29;99601.13;2078773;28;20083;-62
2021/05/24 01:58:55;;;;;;;3.40;2.75;;;;;;;18.55;57.57;99604.72;2080822;28;20033;-61
2021/05/24 01:59:55;;;;;;;4.37;2.53;;;;;;;18.56;57.55;99602.84;2080452;28;20484;-61
2021/05/24 02:01:11;;;;;;;3.23;2.70;;;;;;;18.54;57.57;99602.13;2079655;28;20021;-61
2021/05/24 02:02:11;;;;;;;3.92;3.00;;;;;;;18.55;57.50;99601.13;2072172;28;20029;-61
2021/05/24 02:03:12;;;;;;;4.07;3.00;;;;;;;18.54;57.62;99600.25;2071390;28;20021;-61
2021/05/24 02:04:15;;;;;;;4.10;2.90;;;;;;;18.54;57.47;99599.41;2072816;28;20582;-61
2021/05/24 02:05:17;;;;;;;4.10;2.90;;;;;;;18.56;57.41;99586.44;2080461;28;20021;-61
2021/05/24 02:06:18;;;;;;;4.63;2.63;;;;;;;18.55;57.50;99592.94;2079994;28;20079;-61
2021/05/24 02:07:18;;;;;;;3.70;2.70;;;;;;;18.54;57.48;99586.59;2080442;28;20642;-61
2021/05/24 02:08:19;;;;;;;4.13;2.60;;;;;;;18.55;57.46;99595.69;2075593;28;20044;-62
2021/05/24 02:09:19;;;;;;;5.03;2.33;;;;;;;18.54;57.48;99592.06;2077823;28;20118;-61
2021/05/24 02:10:34;;;;;;;4.10;2.57;;;;;;;18.54;57.47;99593.94;2080314;28;20059;-61
2021/05/24 02:11:35;;;;;;;4.90;3.17;;;;;;;18.55;57.39;99592.94;2079756;28;20512;-61
2021/05/24 02:12:35;;;;;;;5.43;3.27;;;;;;;18.54;57.39;99591.22;2079869;28;20388;-61
2021/05/24 02:13:36;;;;;;;4.37;2.90;;;;;;;18.55;57.45;99595.69;2080511;28;20072;-61
2021/05/24 02:14:36;;;;;;;5.33;2.87;;;;;;;18.54;57.42;99593.94;2079791;28;20025;-61
2021/05/24 02:15:39;;;;;;;4.63;2.70;;;;;;;18.54;57.56;99592.06;2069246;28;20072;-62
2021/05/24 02:16:45;;;;;;;5.40;3.53;;;;;;;18.54;57.60;99593.94;2063983;28;20030;-61
2021/05/24 02:17:46;;;;;;;3.70;2.78;;;;;;;18.54;57.45;99593.94;2077177;28;20030;-61
2021/05/24 02:18:46;;;;;;;3.80;2.75;;;;;;;18.54;57.60;99589.34;2080267;28;20032;-61
2021/05/24 02:19:48;;;;;;;3.73;2.83;;;;;;;18.54;57.57;99593.94;2070950;28;20092;-61
2021/05/24 02:20:48;;;;;;;;;;;;;;;18.49;57.51;99583.50;2073665;28;20093;-61
2021/05/24 02:21:49;;;;;;;4.10;2.63;;;;;;;18.51;57.61;99588.81;2080571;28;20003;-61
2021/05/24 02:22:53;;;;;;;3.50;2.30;;;;;;;18.52;57.56;99590.50;2077548;28;20535;-61
2021/05/24 02:23:54;;;;;;;3.88;2.67;;;;;;;18.51;57.59;99583.34;2080184;28;20037;-61
2021/05/24 02:24:55;;;;;;;3.43;2.43;;;;;;;18.52;57.62;99582.31;2081067;28;20072;-61
2021/05/24 02:25:55;;;;;;;5.13;2.70;;;;;;;18.52;57.33;99580.47;2080242;28;20033;-61
2021/05/24 02:26:55;;;;;;;4.33;2.90;;;;;;;18.53;57.55;99575.88;2078063;28;20089;-61
2021/05/24 02:27:57;;;;;;;4.00;2.70;;;;;;;18.51;57.45;99575.16;2071026;28;20157;-61
2021/05/24 02:28:57;;;;;;;4.45;2.85;;;;;;;18.53;57.48;99581.31;2071459;28;20064;-61
2021/05/24 02:29:58;;;;;;;4.20;3.00;;;;;;;18.54;57.47;99583.03;2078534;28;20033;-61
2021/05/24 02:30:59;;;;;;;5.37;2.53;;;;;;;18.54;57.59;99577.56;2080113;28;20029;-61
2021/05/24 02:31:59;;;;;;;3.70;2.40;;;;;;;18.54;57.48;99580.28;2080418;28;20680;-61
2021/05/24 02:33:00;;;;;;;3.90;2.87;;;;;;;18.54;57.57;99580.28;2079915;28;20060;-61
2021/05/24 02:34:05;;;;;;;3.60;2.70;;;;;;;18.53;57.53;99584.06;2080359;28;20112;-61
2021/05/24 02:35:08;;;;;;;4.10;2.60;;;;;;;18.53;57.36;99581.31;2079330;28;20033;-61
2021/05/24 02:36:08;;;;;;;3.88;2.60;;;;;;;18.53;57.49;99589.50;2079420;28;20037;-61
2021/05/24 02:37:09;;;;;;;4.33;3.30;;;;;;;18.53;57.56;99589.50;2080226;28;20029;-61
2021/05/24 02:38:10;;;;;;;4.70;3.10;;;;;;;18.53;57.55;99584.91;2079219;28;20075;-61
2021/05/24 02:39:11;;;;;;;5.55;2.92;;;;;;;18.53;57.56;99582.16;2078177;28;20052;-61
2021/05/24 02:40:13;;;;;;;5.27;2.90;;;;;;;18.54;57.56;99577.56;2075186;28;20554;-61
2021/05/24 02:41:15;;;;;;;4.07;2.92;;;;;;;18.54;57.49;99583.03;2079152;28;20025;-61
2021/05/24 02:42:15;;;;;;;3.50;2.53;;;;;;;18.56;57.61;99586.44;2068702;28;20069;-61
2021/05/24 02:43:16;;;;;;;3.57;2.40;;;;;;;18.54;57.39;99583.03;2069989;28;20037;-61
2021/05/24 02:44:16;;;;;;;5.37;3.10;;;;;;;18.54;57.38;99588.47;2080281;28;20030;-62
2021/05/24 02:45:18;;;;;;;4.73;2.93;;;;;;;18.53;57.50;99582.16;2079772;28;20040;-61
2021/05/24 02:46:19;;;;;;;4.68;2.42;;;;;;;18.53;57.36;99581.31;2079972;28;20037;-61
2021/05/24 02:47:19;;;;;;;2.97;2.17;;;;;;;18.52;57.59;99579.59;2079747;28;20037;-61
2021/05/24 02:48:20;;;;;;;3.90;2.63;;;;;;;18.52;57.44;99585.03;2080210;28;20029;-61
2021/05/24 02:49:20;;;;;;;3.53;2.70;;;;;;;18.54;57.62;99583.88;2077748;28;20704;-61
2021/05/24 02:50:23;;;;;;;3.47;2.33;;;;;;;18.53;57.53;99581.31;2078322;28;20024;-61
2021/05/24 02:51:24;;;;;;;4.45;2.53;;;;;;;18.52;57.56;99585.03;2079360;28;20100;-61
2021/05/24 02:52:25;;;;;;;3.77;2.50;;;;;;;18.53;57.42;99581.31;2079557;28;20025;-60
2021/05/24 02:53:25;;;;;;;3.73;2.50;;;;;;;18.53;57.46;99581.31;2080040;28;20764;-61
2021/05/24 02:54:25;;;;;;;3.37;2.53;;;;;;;18.53;57.50;99581.31;2080277;28;20034;-61
2021/05/24 02:55:26;;;;;;;3.60;2.53;;;;;;;18.52;57.47;99580.47;2077610;28;20480;-61
2021/05/24 02:56:28;;;;;;;3.47;2.53;;;;;;;18.53;57.43;99586.78;2071015;28;20476;-61
2021/05/24 02:57:28;;;;;;;6.05;2.80;;;;;;;18.52;57.48;99571.41;2074036;28;20075;-61
2021/05/24 02:58:29;;;;;;;3.50;2.80;;;;;;;18.51;57.53;99577.88;2084004;28;20076;-62
2021/05/24 02:59:29;;;;;;;3.47;2.57;;;;;;;18.51;57.46;99583.34;2079200;28;20033;-61
2021/05/24 03:00:30;;;;;;;6.03;2.50;;;;;;;18.52;57.51;99580.47;2079414;28;20473;-61
2021/05/24 03:01:32;;;;;;;3.70;2.57;;;;;;;18.52;57.58;99574.13;2078428;28;20025;-61
2021/05/24 03:02:32;;;;;;;;;;;;;;;18.48;57.58;99575.47;2082685;28;20033;-61
2021/05/24 03:03:33;;;;;;;4.05;2.55;;;;;;;18.49;57.57;99585.38;2079227;28;20011;-61
2021/05/24 03:04:34;;;;;;;3.40;2.38;;;;;;;18.49;57.52;99580.75;2080157;28;20037;-61
2021/05/24 03:05:35;;;;;;;4.20;2.40;;;;;;;18.49;57.61;99574.47;2081381;28;20033;-61
2021/05/24 03:06:35;;;;;;;3.97;2.50;;;;;;;18.49;57.52;99574.47;2086894;28;20036;-61
2021/05/24 03:07:35;;;;;;;4.57;2.77;;;;;;;18.50;57.59;99582.50;2081615;28;20024;-61
2021/05/24 03:08:42;;;;;;;2.97;1.97;;;;;;;18.49;57.48;99582.66;2079402;28;20047;-61
2021/05/24 03:09:42;;;;;;;3.63;2.53;;;;;;;18.50;57.60;99576.19;2075423;28;20037;-62
2021/05/24 03:10:43;;;;;;;4.67;2.70;;;;;;;18.50;57.63;99577.03;2077029;28;20518;-61
2021/05/24 03:11:43;;;;;;;4.50;2.30;;;;;;;18.50;57.54;99582.50;2074940;28;20088;-62
2021/05/24 03:12:44;;;;;;;3.13;2.20;;;;;;;18.50;57.50;99576.19;2078775;28;20049;-61
2021/05/24 03:13:45;;;;;;;3.63;2.60;;;;;;;18.52;57.46;99579.59;2079721;28;20552;-61
2021/05/24 03:14:45;;;;;;;3.08;2.03;;;;;;;18.50;57.50;99581.66;2076090;28;20041;-62
2021/05/24 03:15:46;;;;;;;3.80;2.40;;;;;;;18.50;57.55;99581.66;2080324;28;20043;-62
2021/05/24 03:16:46;;;;;;;2.27;1.87;;;;;;;18.49;57.61;99580.75;2081732;28;20037;-61
2021/05/24 03:17:47;;;;;;;3.73;2.60;;;;;;;18.50;57.60;99581.66;2069976;28;20057;-61
2021/05/24 03:18:48;;;;;;;4.20;2.50;;;;;;;18.51;57.50;99588.81;2064468;28;20018;-61
2021/05/24 03:19:48;;;;;;;2.70;2.17;;;;;;;18.50;57.58;99592.56;2070967;28;20039;-61
2021/05/24 03:20:49;;;;;;;3.70;2.23;;;;;;;18.50;57.43;99603.47;2070413;28;20030;-61
2021/05/24 03:21:49;;;;;;;3.27;2.70;;;;;;;18.51;57.57;99599.72;2079840;28;20116;-61
2021/05/24 03:22:50;;;;;;;4.37;2.27;;;;;;;18.49;57.29;99596.28;2083495;28;20122;-61
2021/05/24 03:23:51;;;;;;;4.20;2.63;;;;;;;18.50;57.74;99598.03;2071722;28;20583;-61
2021/05/24 03:24:51;;;;;;;4.27;2.77;;;;;;;18.49;57.65;99591.69;2073780;28;20815;-61
2021/05/24 03:25:51;;;;;;;3.13;2.43;;;;;;;18.49;57.61;99596.28;2062727;28;20041;-61
2021/05/24 03:26:52;;;;;;;3.97;2.10;;;;;;;18.50;57.69;99589.84;2058894;28;20614;-61
2021/05/24 03:27:53;;;;;;;3.27;2.00;;;;;;;18.49;57.54;99602.59;2072206;28;20032;-61
2021/05/24 03:28:53;;;;;;;3.07;2.43;;;;;;;18.48;57.70;99594.59;2072563;28;20033;-61
2021/05/24 03:29:54;;;;;;;4.37;2.40;;;;;;;18.51;57.61;99605.19;2059814;28;20034;-61
2021/05/24 03:30:54;;;;;;;3.13;2.27;;;;;;;18.50;57.58;99603.47;2062668;28;20037;-61
2021/05/24 03:31:55;;;;;;;4.87;2.37;;;;;;;18.49;57.64;99596.28;2071395;28;20475;-61
2021/05/24 03:32:55;;;;;;;3.63;2.90;;;;;;;18.49;57.60;99593.56;2071201;28;20037;-61
2021/05/24 03:33:56;;;;;;;3.57;2.50;;;;;;;18.50;57.68;99598.03;2066474;28;20205;-61
2021/05/24 03:34:57;;;;;;;3.30;2.60;;;;;;;18.49;57.49;99601.75;2068748;28;20025;-61
2021/05/24 03:35:57;;;;;;;3.33;2.17;;;;;;;18.48;57.51;99600.91;2070523;28;20021;-61
2021/05/24 03:36:58;;;;;;;3.47;2.30;;;;;;;18.49;57.57;99601.75;2070063;28;20512;-61
2021/05/24 03:37:59;;;;;;;3.97;2.37;;;;;;;18.49;57.57;99599.03;2070196;28;20021;-61
2021/05/24 03:38:59;;;;;;;3.65;2.50;;;;;;;18.49;57.67;99607.22;2070830;28;20018;-61
2021/05/24 03:40:00;;;;;;;3.33;2.50;;;;;;;18.49;57.62;99601.75;2069956;28;20037;-61
2021/05/24 03:41:01;;;;;;;3.13;2.27;;;;;;;18.49;57.64;99601.75;2071294;28;20128;-61
2021/05/24 03:42:02;;;;;;;3.20;2.10;;;;;;;18.48;57.71;99600.91;2072155;28;20026;-61
2021/05/24 03:43:03;;;;;;;3.23;2.27;;;;;;;18.48;57.55;99606.34;2071312;28;20037;-61
2021/05/24 03:44:04;;;;;;;3.10;1.90;;;;;;;18.49;57.69;99613.50;2071329;28;20036;-61
2021/05/24 03:45:07;;;;;;;3.45;2.42;;;;;;;18.49;57.58;99618.13;2068548;28;20048;-61
2021/05/24 03:46:08;;;;;;;3.25;2.30;;;;;;;18.49;57.60;99607.22;2062581;28;20034;-61
2021/05/24 03:47:10;;;;;;;2.67;2.17;;;;;;;18.51;57.67;99610.63;2062117;28;20033;-61
2021/05/24 03:48:10;;;;;;;3.50;2.17;;;;;;;18.50;57.74;99603.47;2071253;28;20029;-61
2021/05/24 03:49:12;;;;;;;4.10;2.30;;;;;;;18.49;57.61;99604.47;2069354;28;20038;-61
2021/05/24 03:50:13;;;;;;;5.25;2.33;;;;;;;18.48;57.68;99609.09;2074289;28;20264;-61
2021/05/24 03:51:14;;;;;;;4.13;2.50;;;;;;;18.49;57.61;99608.06;2071225;28;20401;-61
2021/05/24 03:52:15;;;;;;;3.57;2.20;;;;;;;18.49;57.52;99608.06;2074067;28;20247;-61
2021/05/24 03:53:16;;;;;;;2.78;2.03;;;;;;;18.47;57.61;99603.78;2071193;28;20041;-61
2021/05/24 03:54:16;;;;;;;2.17;1.60;;;;;;;18.47;57.42;99598.31;2074496;28;20037;-61
2021/05/24 03:55:17;;;;;;;2.90;1.83;;;;;;;18.47;57.48;99599.19;2074251;28;20029;-61
2021/05/24 03:56:18;;;;;;;2.87;1.80;;;;;;;18.46;57.56;99599.34;2070850;28;20472;-61
2021/05/24 03:57:18;;;;;;;3.93;2.20;;;;;;;18.46;57.55;99594.72;2070089;28;20057;-61
2021/05/24 03:58:19;;;;;;;3.07;2.00;;;;;;;18.47;57.63;99595.59;2070147;28;20056;-61
2021/05/24 03:59:19;;;;;;;3.50;2.50;;;;;;;18.48;57.63;99600.03;2070198;28;20060;-61
2021/05/24 04:00:21;;;;;;;3.83;2.70;;;;;;;18.47;57.80;99592.84;2071079;28;20025;-62
2021/05/24 04:01:21;;;;;;;3.25;2.10;;;;;;;18.47;57.44;99592.84;2071441;28;20021;-61
2021/05/24 04:02:22;;;;;;;2.17;1.80;;;;;;;18.47;57.56;99599.19;2070987;28;20532;-61
2021/05/24 04:03:22;;;;;;;3.20;2.37;;;;;;;18.47;57.45;99598.31;2075566;28;20029;-61
2021/05/24 04:04:23;;;;;;;3.07;2.10;;;;;;;18.47;57.68;99598.31;2070695;28;20862;-61
2021/05/24 04:05:36;;;;;;;3.00;2.10;;;;;;;18.46;57.57;99591.16;2070650;28;20219;-61
2021/05/24 04:06:39;;;;;;;4.65;2.13;;;;;;;18.46;57.72;99591.16;2069062;28;20033;-60
2021/05/24 04:07:41;;;;;;;3.03;2.08;;;;;;;18.46;57.64;99596.63;2070817;28;20055;-61
2021/05/24 04:08:43;;;;;;;3.25;2.10;;;;;;;18.46;57.65;99593.88;2056109;28;20498;-66
2021/05/24 04:09:44;;;;;;;4.22;2.17;;;;;;;18.45;57.72;99586.69;2058564;28;20524;-65
2021/05/24 04:10:52;;;;;;;2.73;1.90;;;;;;;18.45;57.60;99583.97;2066790;28;20366;-66
2021/05/24 04:11:53;;;;;;;4.10;2.22;;;;;;;18.45;57.49;99579.38;2061849;28;20029;-65
2021/05/24 04:12:53;;;;;;;3.30;2.10;;;;;;;18.46;57.72;99580.25;2058929;28;20049;-65
2021/05/24 04:13:55;;;;;;;3.47;2.30;;;;;;;18.45;57.66;99573.06;2061238;28;20034;-65
2021/05/24 04:14:56;;;;;;;4.15;2.80;;;;;;;18.46;57.57;99572.06;2071423;28;20509;-64
2021/05/24 04:15:58;;;;;;;3.13;2.22;;;;;;;18.44;57.71;99572.19;2070625;28;20149;-66
2021/05/24 04:16:59;;;;;;;3.72;2.50;;;;;;;18.46;57.54;99563.88;2069601;28;20057;-66
2021/05/24 04:18:03;;;;;;;3.43;2.20;;;;;;;18.45;57.71;99564.84;2070256;28;20030;-65
2021/05/24 04:19:08;;;;;;;3.22;1.88;;;;;;;18.45;57.55;99562.13;2070574;28;20049;-66
2021/05/24 04:20:11;;;;;;;3.58;2.17;;;;;;;18.45;57.72;99553.94;2069300;28;20121;-66
2021/05/24 04:21:13;;;;;;;3.35;2.03;;;;;;;18.45;57.59;99551.22;2061446;28;20021;-66
2021/05/24 04:22:13;;;;;;;3.33;2.53;;;;;;;18.43;57.70;99546.78;2059640;28;20088;-66
2021/05/24 04:23:15;;;;;;;2.97;2.00;;;;;;;18.45;57.63;99545.75;2068258;28;20025;-66
2021/05/24 04:24:15;;;;;;;;;;;;;;;18.39;57.57;99533.63;2071151;28;20034;-66
2021/05/24 04:25:17;;;;;;;3.28;2.10;;;;;;;18.40;57.69;99538.94;2072292;28;19936;-66
2021/05/24 04:26:17;;;;;;;2.50;2.00;;;;;;;18.40;57.60;99536.19;2070716;28;20033;-66
2021/05/24 04:27:18;;;;;;;2.83;2.27;;;;;;;18.41;57.62;99537.91;2071514;28;20097;-66
2021/05/24 04:28:18;;;;;;;4.17;1.90;;;;;;;18.41;57.76;99529.72;2066767;28;20025;-66
2021/05/24 04:29:19;;;;;;;3.47;2.10;;;;;;;18.42;57.77;99522.38;2070566;28;20045;-66
2021/05/24 04:30:20;;;;;;;3.90;2.37;;;;;;;18.42;57.54;99522.38;2072426;28;20036;-65
2021/05/24 04:31:22;;;;;;;3.25;2.10;;;;;;;18.42;57.82;99517.78;2069923;28;20021;-65
2021/05/24 04:32:22;;;;;;;3.28;2.55;;;;;;;18.41;57.63;99513.34;2061235;28;20037;-66
2021/05/24 04:33:23;;;;;;;3.33;1.90;;;;;;;18.41;57.69;99513.34;2063019;28;20042;-65
2021/05/24 04:34:23;;;;;;;2.67;2.20;;;;;;;18.41;57.78;99513.34;2070510;28;20029;-66
2021/05/24 04:35:24;;;;;;;3.73;2.27;;;;;;;18.41;57.61;99513.34;2070335;28;20038;-65
2021/05/24 04:36:24;;;;;;;2.97;2.20;;;;;;;18.42;57.52;99509.63;2061218;28;20738;-66
2021/05/24 04:37:25;;;;;;;3.03;2.00;;;;;;;18.42;57.59;99515.06;2061450;28;20042;-65
2021/05/24 04:38:25;;;;;;;3.23;2.10;;;;;;;18.43;57.67;99521.38;2072067;28;20038;-66
2021/05/24 04:39:25;;;;;;;3.00;2.17;;;;;;;18.42;57.74;99520.53;2069452;28;20465;-65
2021/05/24 04:40:26;;;;;;;3.27;2.27;;;;;;;18.43;57.50;99516.78;2067365;28;20048;-66
2021/05/24 04:41:27;;;;;;;3.23;2.10;;;;;;;18.43;57.70;99518.66;2073228;28;20032;-65
2021/05/24 04:42:27;;;;;;;2.40;1.87;;;;;;;18.42;57.77;99522.38;2060724;28;20042;-65
2021/05/24 04:43:29;;;;;;;3.00;2.20;;;;;;;18.41;57.55;99524.25;2061373;28;20129;-66
2021/05/24 04:44:30;;;;;;;3.50;2.20;;;;;;;18.42;57.65;99522.38;2061216;28;20141;-66
2021/05/24 04:45:30;;;;;;;2.90;1.90;;;;;;;18.43;57.83;99526.84;2060243;28;20129;-65
2021/05/24 04:46:31;;;;;;;3.07;2.20;;;;;;;18.42;57.67;99531.44;2064236;28;20129;-65
2021/05/24 04:47:31;;;;;;;6.00;2.50;;;;;;;18.42;57.60;99525.97;2070051;28;20041;-65
2021/05/24 04:48:34;;;;;;;2.80;1.87;;;;;;;18.43;57.60;99527.69;2069354;28;20030;-66